createdAt,value
2018-02-13T00:01:47.682Z,4.94
2018-02-13T00:04:15.202Z,4.99
2018-02-13T00:06:43.619Z,5.02
2018-02-13T00:09:11.090Z,5.06
2018-02-13T00:11:38.594Z,5.09
2018-02-13T00:14:06.153Z,5.10
2018-02-13T00:16:33.627Z,5.11
2018-02-13T00:19:01.110Z,5.11
2018-02-13T00:21:28.610Z,5.11
2018-02-13T00:23:56.094Z,5.14
2018-02-13T00:26:23.591Z,5.14
2018-02-13T00:28:51.111Z,5.15
2018-02-13T00:31:18.600Z,5.16
2018-02-13T00:33:46.075Z,5.17
2018-02-13T00:36:13.565Z,5.16
2018-02-13T00:38:41.052Z,5.16
2018-02-13T00:41:08.528Z,5.17
2018-02-13T00:43:36.007Z,5.18
2018-02-13T00:46:03.514Z,5.17
2018-02-13T00:48:31.036Z,5.16
2018-02-13T00:50:58.513Z,5.14
2018-02-13T00:53:25.997Z,5.15
2018-02-13T00:55:53.478Z,5.15
2018-02-13T00:58:20.959Z,5.19
2018-02-13T01:00:48.456Z,5.22
2018-02-13T01:03:15.927Z,5.29
2018-02-13T01:05:43.426Z,5.34
2018-02-13T01:08:10.907Z,5.37
2018-02-13T01:10:38.399Z,5.39
2018-02-13T01:13:05.882Z,5.41
2018-02-13T01:15:33.362Z,5.41
2018-02-13T01:18:00.850Z,5.43
2018-02-13T01:20:28.341Z,5.46
2018-02-13T01:22:55.810Z,5.50
2018-02-13T01:25:23.314Z,5.53
2018-02-13T01:27:50.798Z,5.57
2018-02-13T01:30:18.288Z,5.59
2018-02-13T01:32:45.762Z,5.62
2018-02-13T01:35:13.255Z,5.63
2018-02-13T01:37:40.739Z,5.66
2018-02-13T01:40:08.216Z,5.66
2018-02-13T01:42:35.710Z,5.67
2018-02-13T01:45:03.195Z,5.70
2018-02-13T01:47:30.669Z,5.73
2018-02-13T01:49:58.149Z,5.74
2018-02-13T01:52:25.645Z,5.81
2018-02-13T01:54:53.113Z,5.85
2018-02-13T01:57:20.597Z,5.87
2018-02-13T01:59:48.115Z,5.87
2018-02-13T02:02:21.339Z,5.89
2018-02-13T02:04:48.826Z,5.90
2018-02-13T02:07:16.327Z,5.91
2018-02-13T02:09:43.801Z,5.93
2018-02-13T02:12:11.281Z,5.95
2018-02-13T02:14:38.748Z,5.96
2018-02-13T02:17:06.218Z,5.97
2018-02-13T02:19:33.814Z,5.99
2018-02-13T02:22:01.298Z,6.02
2018-02-13T02:24:28.762Z,6.04
2018-02-13T02:26:56.250Z,6.07
2018-02-13T02:29:23.770Z,6.11
2018-02-13T02:31:51.247Z,6.14
2018-02-13T02:34:18.727Z,6.15
2018-02-13T02:36:46.218Z,6.18
2018-02-13T02:39:13.696Z,6.18
2018-02-13T02:41:41.163Z,6.18
2018-02-13T02:44:08.637Z,6.17
2018-02-13T02:46:36.103Z,6.18
2018-02-13T02:49:03.592Z,6.18
2018-02-13T02:51:31.068Z,6.19
2018-02-13T02:53:58.562Z,6.19
2018-02-13T02:56:26.047Z,6.19
2018-02-13T02:58:53.515Z,6.21
2018-02-13T03:01:20.979Z,6.22
2018-02-13T03:03:48.454Z,6.25
2018-02-13T03:06:15.934Z,6.27
2018-02-13T03:08:43.426Z,6.27
2018-02-13T03:11:10.906Z,6.28
2018-02-13T03:13:38.404Z,6.27
2018-02-13T03:16:05.886Z,6.27
2018-02-13T03:18:33.363Z,6.27
2018-02-13T03:21:00.835Z,6.27
2018-02-13T03:23:28.314Z,6.27
2018-02-13T03:25:55.787Z,6.27
2018-02-13T03:28:23.263Z,6.26
2018-02-13T03:30:50.739Z,6.25
2018-02-13T03:33:18.202Z,6.24
2018-02-13T03:35:45.683Z,6.23
2018-02-13T03:38:13.183Z,6.22
2018-02-13T03:40:40.690Z,6.21
2018-02-13T03:43:08.168Z,6.21
2018-02-13T03:45:35.651Z,6.22
2018-02-13T03:48:03.130Z,6.22
2018-02-13T03:50:30.602Z,6.22
2018-02-13T03:52:58.074Z,6.22
2018-02-13T03:55:25.546Z,6.22
2018-02-13T03:57:53.003Z,6.23
2018-02-13T04:00:20.498Z,6.21
2018-02-13T04:02:47.976Z,6.22
2018-02-13T04:05:15.454Z,6.21
2018-02-13T04:07:42.931Z,6.21
2018-02-13T04:10:10.446Z,6.19
2018-02-13T04:12:37.919Z,6.17
2018-02-13T04:15:05.402Z,6.14
2018-02-13T04:17:32.907Z,6.12
2018-02-13T04:20:00.383Z,6.10
2018-02-13T04:22:27.867Z,6.08
2018-02-13T04:24:55.339Z,6.06
2018-02-13T04:27:22.810Z,6.04
2018-02-13T04:29:50.287Z,6.03
2018-02-13T04:32:17.759Z,6.00
2018-02-13T04:34:45.250Z,5.99
2018-02-13T04:37:12.744Z,5.97
2018-02-13T04:39:40.218Z,5.95
2018-02-13T04:42:07.702Z,5.94
2018-02-13T04:44:35.182Z,5.92
2018-02-13T04:47:02.677Z,5.91
2018-02-13T04:49:30.151Z,5.89
2018-02-13T04:51:57.647Z,5.87
2018-02-13T04:54:25.128Z,5.86
2018-02-13T04:56:52.611Z,5.85
2018-02-13T04:59:20.083Z,5.84
2018-02-13T05:01:47.567Z,5.83
2018-02-13T05:04:15.044Z,5.82
2018-02-13T05:06:42.539Z,5.80
2018-02-13T05:09:10.013Z,5.79
2018-02-13T05:11:37.495Z,5.79
2018-02-13T05:14:04.970Z,5.78
2018-02-13T05:16:32.441Z,5.77
2018-02-13T05:18:59.925Z,5.76
2018-02-13T05:21:27.411Z,5.76
2018-02-13T05:23:54.891Z,5.75
2018-02-13T05:26:22.392Z,5.73
2018-02-13T05:28:49.874Z,5.72
2018-02-13T05:31:17.358Z,5.70
2018-02-13T05:33:44.832Z,5.68
2018-02-13T05:36:12.323Z,5.65
2018-02-13T05:38:39.804Z,5.63
2018-02-13T05:41:07.278Z,5.61
2018-02-13T05:43:34.750Z,5.59
2018-02-13T05:46:02.248Z,5.55
2018-02-13T05:48:29.723Z,5.53
2018-02-13T05:50:57.237Z,5.51
2018-02-13T05:53:24.714Z,5.49
2018-02-13T05:55:52.203Z,5.48
2018-02-13T05:58:19.686Z,5.47
2018-02-13T06:00:47.146Z,5.46
2018-02-13T06:03:14.623Z,5.43
2018-02-13T06:05:42.102Z,5.43
2018-02-13T06:08:09.617Z,5.41
2018-02-13T06:10:37.136Z,5.40
2018-02-13T06:13:04.611Z,5.38
2018-02-13T06:15:32.094Z,5.38
2018-02-13T06:17:59.574Z,5.38
2018-02-13T06:20:27.050Z,5.37
2018-02-13T06:22:54.552Z,5.35
2018-02-13T06:25:22.029Z,5.33
2018-02-13T06:27:49.522Z,5.31
2018-02-13T06:30:16.998Z,5.30
2018-02-13T06:32:44.474Z,5.27
2018-02-13T06:35:11.956Z,5.23
2018-02-13T06:37:39.437Z,5.23
2018-02-13T06:40:06.947Z,5.23
2018-02-13T06:42:34.427Z,5.21
2018-02-13T06:45:01.914Z,5.21
2018-02-13T06:47:29.390Z,5.19
2018-02-13T06:49:56.860Z,5.12
2018-02-13T06:52:24.384Z,5.10
2018-02-13T06:54:51.854Z,5.08
2018-02-13T06:57:19.349Z,5.07
2018-02-13T06:59:46.822Z,5.07
2018-02-13T07:02:14.298Z,5.07
2018-02-13T07:04:41.783Z,5.08
2018-02-13T07:07:09.316Z,5.08
2018-02-13T07:09:36.809Z,5.10
2018-02-13T07:12:04.286Z,5.15
2018-02-13T07:14:31.762Z,5.18
2018-02-13T07:16:59.263Z,5.22
2018-02-13T07:19:26.749Z,5.27
2018-02-13T07:21:54.329Z,5.31
2018-02-13T07:24:21.815Z,5.33
2018-02-13T07:26:49.307Z,5.35
2018-02-13T07:29:16.784Z,5.37
2018-02-13T07:31:44.267Z,5.37
2018-02-13T07:34:11.738Z,5.37
2018-02-13T07:36:39.251Z,5.37
2018-02-13T07:39:07.859Z,5.37
2018-02-13T07:41:35.351Z,5.36
2018-02-13T07:44:02.833Z,5.34
2018-02-13T07:46:30.320Z,5.33
2018-02-13T07:48:57.813Z,5.32
2018-02-13T07:51:25.280Z,5.32
2018-02-13T07:53:52.763Z,5.33
2018-02-13T07:56:20.230Z,5.35
2018-02-13T07:58:47.708Z,5.37
2018-02-13T08:01:15.203Z,5.38
2018-02-13T08:03:42.755Z,5.40
2018-02-13T08:06:10.261Z,5.42
2018-02-13T08:08:37.823Z,5.43
2018-02-13T08:11:05.317Z,5.45
2018-02-13T08:13:32.799Z,5.46
2018-02-13T08:16:00.303Z,5.47
2018-02-13T08:18:27.843Z,5.48
2018-02-13T08:20:55.392Z,5.52
2018-02-13T08:23:22.918Z,5.56
2018-02-13T08:25:50.395Z,5.58
2018-02-13T08:28:17.953Z,5.60
2018-02-13T08:30:45.434Z,5.63
2018-02-13T08:33:12.906Z,5.65
2018-02-13T08:35:40.397Z,5.69
2018-02-13T08:38:07.926Z,5.71
2018-02-13T08:40:36.236Z,5.74
2018-02-13T08:43:03.723Z,5.76
2018-02-13T08:45:31.220Z,5.78
2018-02-13T08:47:58.710Z,5.80
2018-02-13T08:50:26.205Z,5.83
2018-02-13T08:52:53.674Z,5.85
2018-02-13T08:55:21.148Z,5.87
2018-02-13T08:57:48.628Z,5.89
2018-02-13T09:00:16.122Z,5.92
2018-02-13T09:02:43.598Z,5.93
2018-02-13T09:05:11.079Z,5.93
2018-02-13T09:07:38.572Z,5.94
2018-02-13T09:10:06.137Z,5.95
2018-02-13T09:12:33.616Z,5.96
2018-02-13T09:15:01.101Z,5.97
2018-02-13T09:17:28.590Z,5.97
2018-02-13T09:19:56.144Z,5.97
2018-02-13T09:22:23.622Z,5.96
2018-02-13T09:24:51.107Z,5.94
2018-02-13T09:27:18.583Z,5.92
2018-02-13T09:29:46.055Z,5.89
2018-02-13T09:32:13.553Z,5.86
2018-02-13T09:34:41.030Z,5.84
2018-02-13T09:37:08.503Z,5.85
2018-02-13T09:39:35.989Z,5.85
2018-02-13T09:42:03.526Z,5.86
2018-02-13T09:44:31.004Z,5.88
2018-02-13T09:46:58.500Z,5.90
2018-02-13T09:49:25.998Z,5.91
2018-02-13T09:51:53.492Z,5.94
2018-02-13T09:54:20.986Z,5.97
2018-02-13T09:56:48.579Z,6.00
2018-02-13T09:59:16.088Z,6.02
2018-02-13T10:01:43.654Z,6.04
2018-02-13T10:04:11.144Z,6.05
2018-02-13T10:06:38.649Z,6.06
2018-02-13T10:09:06.212Z,6.07
2018-02-13T10:11:33.855Z,6.08
2018-02-13T10:14:01.803Z,6.09
2018-02-13T10:16:29.349Z,6.09
2018-02-13T10:18:56.862Z,6.10
2018-02-13T10:21:24.366Z,6.10
2018-02-13T10:23:51.882Z,6.10
2018-02-13T10:26:19.613Z,6.09
2018-02-13T10:28:47.179Z,6.08
2018-02-13T10:31:14.753Z,6.07
2018-02-13T10:33:42.239Z,5.98
2018-02-13T10:36:09.710Z,5.92
2018-02-13T10:38:37.197Z,5.89
2018-02-13T10:41:04.674Z,5.86
2018-02-13T10:43:32.166Z,5.85
2018-02-13T10:46:00.502Z,5.85
2018-02-13T10:48:27.995Z,5.87
2018-02-13T10:50:55.570Z,5.89
2018-02-13T10:53:23.059Z,5.90
2018-02-13T10:55:50.542Z,5.93
2018-02-13T10:58:18.077Z,5.96
2018-02-13T11:00:51.085Z,6.01
2018-02-13T11:03:18.633Z,6.04
2018-02-13T11:05:46.324Z,6.09
2018-02-13T11:08:13.892Z,6.16
2018-02-13T11:10:41.554Z,6.20
2018-02-13T11:13:09.152Z,6.24
2018-02-13T11:15:36.737Z,6.26
2018-02-13T11:18:04.555Z,6.27
2018-02-13T11:20:32.035Z,6.27
2018-02-13T11:22:59.579Z,6.27
2018-02-13T11:25:27.095Z,6.31
2018-02-13T11:27:54.612Z,6.35
2018-02-13T11:30:22.131Z,6.39
2018-02-13T11:32:49.731Z,6.46
2018-02-13T11:35:17.264Z,6.50
2018-02-13T11:37:44.770Z,6.53
2018-02-13T11:40:12.280Z,6.56
2018-02-13T11:42:39.791Z,6.58
2018-02-13T11:45:07.416Z,6.65
2018-02-13T11:47:34.964Z,6.72
2018-02-13T11:50:02.435Z,6.75
2018-02-13T11:52:29.955Z,6.74
2018-02-13T11:54:57.464Z,6.76
2018-02-13T11:57:24.975Z,6.78
2018-02-13T11:59:52.532Z,6.80
2018-02-13T12:02:20.066Z,6.84
2018-02-13T12:04:47.569Z,6.88
2018-02-13T12:07:15.077Z,6.90
2018-02-13T12:09:42.603Z,6.89
2018-02-13T12:12:10.091Z,6.89
2018-02-13T12:14:37.925Z,6.94
2018-02-13T12:17:05.416Z,6.98
2018-02-13T12:19:32.935Z,7.00
2018-02-13T12:22:00.434Z,7.02
2018-02-13T12:24:27.971Z,7.01
2018-02-13T12:26:55.463Z,7.02
2018-02-13T12:29:22.982Z,7.00
2018-02-13T12:31:50.484Z,6.93
2018-02-13T12:34:18.017Z,6.86
2018-02-13T12:36:45.555Z,6.82
2018-02-13T12:39:13.039Z,6.80
2018-02-13T12:41:40.533Z,6.83
2018-02-13T12:44:08.037Z,6.87
2018-02-13T12:46:35.554Z,6.92
2018-02-13T12:49:03.050Z,6.97
2018-02-13T12:51:30.545Z,7.01
2018-02-13T12:56:32.135Z,7.08
2018-02-13T12:58:59.638Z,7.10
2018-02-13T13:01:27.135Z,7.08
2018-02-13T13:03:55.096Z,7.08
2018-02-13T13:06:22.784Z,7.12
2018-02-13T13:08:50.288Z,7.18
2018-02-13T13:11:17.784Z,7.25
2018-02-13T13:13:45.303Z,7.31
2018-02-13T13:16:12.796Z,7.34
2018-02-13T13:18:40.316Z,7.39
2018-02-13T13:21:07.818Z,7.44
2018-02-13T13:23:35.318Z,7.45
2018-02-13T13:26:03.805Z,7.48
2018-02-13T13:28:31.290Z,7.52
2018-02-13T13:30:58.794Z,7.52
2018-02-13T13:33:26.287Z,7.48
2018-02-13T13:35:53.764Z,7.47
2018-02-13T13:38:21.290Z,7.47
2018-02-13T13:40:48.907Z,7.46
2018-02-13T13:43:16.477Z,7.43
2018-02-13T13:45:43.971Z,7.43
2018-02-13T13:48:11.484Z,7.49
2018-02-13T13:50:38.980Z,7.54
2018-02-13T13:53:06.459Z,7.65
2018-02-13T13:55:35.178Z,7.66
2018-02-13T13:58:02.692Z,7.57
2018-02-13T14:00:30.182Z,7.50
2018-02-13T14:02:57.703Z,7.47
2018-02-13T14:05:25.255Z,7.48
2018-02-13T14:07:52.775Z,7.48
2018-02-13T14:10:20.276Z,7.51
2018-02-13T14:12:47.792Z,7.55
2018-02-13T14:15:15.293Z,7.67
2018-02-13T14:17:42.808Z,7.71
2018-02-13T14:20:10.310Z,7.66
2018-02-13T14:22:37.862Z,7.62
2018-02-13T14:25:05.367Z,7.75
2018-02-13T14:27:32.924Z,7.89
2018-02-13T14:30:00.462Z,7.92
2018-02-13T14:32:27.961Z,7.85
2018-02-13T14:34:55.503Z,7.89
2018-02-13T14:37:24.161Z,8.01
2018-02-13T14:39:51.732Z,8.07
2018-02-13T14:42:19.277Z,8.06
2018-02-13T14:44:46.821Z,8.01
2018-02-13T14:47:14.369Z,8.01
2018-02-13T14:49:41.977Z,8.00
2018-02-13T14:52:09.508Z,8.05
2018-02-13T14:54:37.005Z,8.16
2018-02-13T14:57:04.548Z,8.24
2018-02-13T14:59:32.038Z,8.21
2018-02-13T15:01:59.581Z,8.25
2018-02-13T15:04:27.096Z,8.25
2018-02-13T15:06:54.656Z,8.18
2018-02-13T15:09:22.119Z,8.07
2018-02-13T15:11:49.607Z,8.15
2018-02-13T15:14:17.948Z,8.21
2018-02-13T15:16:47.275Z,8.13
2018-02-13T15:19:14.799Z,7.97
2018-02-13T15:21:42.286Z,7.93
2018-02-13T15:24:09.803Z,7.99
2018-02-13T15:26:37.276Z,7.97
2018-02-13T15:29:04.796Z,7.92
2018-02-13T15:31:33.197Z,7.87
2018-02-13T15:34:00.696Z,7.89
2018-02-13T15:36:28.195Z,7.97
2018-02-13T15:38:55.792Z,7.88
2018-02-13T15:41:23.282Z,7.76
2018-02-13T15:43:50.766Z,7.62
2018-02-13T15:46:18.278Z,7.67
2018-02-13T15:48:45.787Z,7.78
2018-02-13T15:51:13.288Z,7.87
2018-02-13T15:53:41.568Z,7.97
2018-02-13T15:56:09.062Z,7.99
2018-02-13T15:58:36.608Z,8.06
2018-02-13T16:01:04.116Z,8.12
2018-02-13T16:03:31.606Z,8.14
2018-02-13T16:05:59.115Z,8.14
2018-02-13T16:08:26.613Z,8.11
2018-02-13T16:10:54.132Z,8.12
2018-02-13T16:13:21.621Z,8.19
2018-02-13T16:15:49.123Z,8.23
2018-02-13T16:18:16.578Z,8.23
2018-02-13T16:20:44.286Z,8.17
2018-02-13T16:23:11.779Z,8.10
2018-02-13T16:25:39.946Z,8.03
2018-02-13T16:28:07.438Z,7.92
2018-02-13T16:30:34.932Z,7.80
2018-02-13T16:33:02.436Z,7.76
2018-02-13T16:35:29.965Z,7.72
2018-02-13T16:37:57.455Z,7.69
2018-02-13T16:40:25.004Z,7.66
2018-02-13T16:42:52.606Z,7.59
2018-02-13T16:45:20.114Z,7.55
2018-02-13T16:47:47.602Z,7.46
2018-02-13T16:50:15.170Z,7.38
2018-02-13T16:52:42.689Z,7.30
2018-02-13T16:55:10.183Z,7.19
2018-02-13T16:57:37.702Z,7.11
2018-02-13T17:00:05.197Z,6.98
2018-02-13T17:02:32.720Z,6.91
2018-02-13T17:05:00.219Z,6.83
2018-02-13T17:07:27.744Z,6.75
2018-02-13T17:09:55.232Z,6.67
2018-02-13T17:12:22.757Z,6.57
2018-02-13T17:14:50.251Z,6.51
2018-02-13T17:17:17.740Z,6.46
2018-02-13T17:19:45.243Z,6.40
2018-02-13T17:22:12.759Z,6.34
2018-02-13T17:24:40.263Z,6.27
2018-02-13T17:27:07.770Z,6.22
2018-02-13T17:29:35.271Z,6.17
2018-02-13T17:32:02.774Z,6.12
2018-02-13T17:34:30.287Z,6.07
2018-02-13T17:36:57.794Z,6.03
2018-02-13T17:39:25.315Z,5.98
2018-02-13T17:41:52.807Z,5.93
2018-02-13T17:44:20.324Z,5.90
2018-02-13T17:46:47.803Z,5.85
2018-02-13T17:49:15.279Z,5.83
2018-02-13T17:51:42.778Z,5.80
2018-02-13T17:54:10.257Z,5.78
2018-02-13T17:56:37.736Z,5.77
2018-02-13T17:59:05.290Z,5.74
2018-02-13T18:01:32.790Z,5.71
2018-02-13T18:04:00.288Z,5.69
2018-02-13T18:06:27.788Z,5.65
2018-02-13T18:08:55.279Z,5.63
2018-02-13T18:11:22.768Z,5.60
2018-02-13T18:13:50.248Z,5.58
2018-02-13T18:16:17.752Z,5.54
2018-02-13T18:18:45.501Z,5.50
2018-02-13T18:21:13.107Z,5.47
2018-02-13T18:23:40.625Z,5.45
2018-02-13T18:26:08.127Z,5.41
2018-02-13T18:28:35.619Z,5.39
2018-02-13T18:31:03.109Z,5.37
2018-02-13T18:33:30.619Z,5.35
2018-02-13T18:35:58.126Z,5.32
2018-02-13T18:38:26.341Z,5.30
2018-02-13T18:40:53.995Z,5.28
2018-02-13T18:43:21.470Z,5.26
2018-02-13T18:45:48.995Z,5.25
2018-02-13T18:48:16.561Z,5.23
2018-02-13T18:50:44.087Z,5.22
2018-02-13T18:55:39.157Z,5.18
2018-02-13T18:58:06.681Z,5.15
2018-02-13T19:00:34.259Z,5.11
2018-02-13T19:03:02.060Z,5.06
2018-02-13T19:05:30.136Z,5.01
2018-02-13T19:07:59.801Z,4.96
2018-02-13T19:10:27.481Z,4.93
2018-02-13T19:12:54.991Z,4.89
2018-02-13T19:15:22.517Z,4.84
2018-02-13T19:17:50.054Z,4.80
2018-02-13T19:20:17.543Z,4.76
2018-02-13T19:22:45.042Z,4.71
2018-02-13T19:25:12.558Z,4.67
2018-02-13T19:27:40.042Z,4.62
2018-02-13T19:30:07.632Z,4.58
2018-02-13T19:32:35.122Z,4.55
2018-02-13T19:35:02.644Z,4.51
2018-02-13T19:37:30.139Z,4.48
2018-02-13T19:39:57.635Z,4.46
2018-02-13T19:42:25.147Z,4.44
2018-02-13T19:44:52.708Z,4.41
2018-02-13T19:47:20.236Z,4.38
2018-02-13T19:49:47.718Z,4.36
2018-02-13T19:52:15.187Z,4.33
2018-02-13T19:54:42.698Z,4.33
2018-02-13T19:57:10.223Z,4.33
2018-02-13T19:59:37.754Z,4.32
2018-02-13T20:02:05.254Z,4.31
2018-02-13T20:04:32.820Z,4.28
2018-02-13T20:07:01.090Z,4.25
2018-02-13T20:09:28.602Z,4.23
2018-02-13T20:11:56.108Z,4.21
2018-02-13T20:14:23.697Z,4.20
2018-02-13T20:16:51.364Z,4.18
2018-02-13T20:19:18.866Z,4.17
2018-02-13T20:21:46.370Z,4.15
2018-02-13T20:24:13.919Z,4.13
2018-02-13T20:26:41.527Z,4.12
2018-02-13T20:29:09.008Z,4.13
2018-02-13T20:31:36.512Z,4.14
2018-02-13T20:34:04.035Z,4.14
2018-02-13T20:36:31.520Z,4.15
2018-02-13T20:38:59.056Z,4.16
2018-02-13T20:41:26.615Z,4.15
2018-02-13T20:43:54.081Z,4.17
2018-02-13T20:46:21.655Z,4.15
2018-02-13T20:48:49.189Z,4.14
2018-02-13T20:51:16.687Z,4.14
2018-02-13T20:53:44.171Z,4.12
2018-02-13T20:56:11.694Z,4.08
2018-02-13T20:58:39.184Z,4.05
2018-02-13T21:01:06.702Z,4.02
2018-02-13T21:03:34.178Z,3.98
2018-02-13T21:06:01.674Z,3.93
2018-02-13T21:08:29.174Z,3.89
2018-02-13T21:10:56.678Z,3.86
2018-02-13T21:13:24.177Z,3.80
2018-02-13T21:15:51.692Z,3.73
2018-02-13T21:18:19.181Z,3.66
2018-02-13T21:20:46.685Z,3.59
2018-02-13T21:23:14.179Z,3.53
2018-02-13T21:25:41.679Z,3.49
2018-02-13T21:28:09.169Z,3.45
2018-02-13T21:30:36.683Z,3.42
2018-02-13T21:33:04.172Z,3.38
2018-02-13T21:35:31.674Z,3.36
2018-02-13T21:37:59.201Z,3.32
2018-02-13T21:40:26.716Z,3.29
2018-02-13T21:42:54.220Z,3.26
2018-02-13T21:45:21.732Z,3.22
2018-02-13T21:47:49.229Z,3.17
2018-02-13T21:50:16.784Z,3.14
2018-02-13T21:52:44.269Z,3.10
2018-02-13T21:55:11.743Z,3.05
2018-02-13T21:57:39.251Z,3.03
2018-02-13T22:00:06.777Z,3.02
2018-02-13T22:02:34.280Z,3.00
2018-02-13T22:05:01.767Z,2.99
2018-02-13T22:07:29.246Z,2.95
2018-02-13T22:09:56.742Z,2.92
2018-02-13T22:12:24.230Z,2.89
2018-02-13T22:14:51.757Z,2.87
2018-02-13T22:17:19.252Z,2.84
2018-02-13T22:19:46.747Z,2.83
2018-02-13T22:22:14.247Z,2.82
2018-02-13T22:24:41.757Z,2.81
2018-02-13T22:27:09.250Z,2.81
2018-02-13T22:29:36.802Z,2.80
2018-02-13T22:32:04.272Z,2.79
2018-02-13T22:34:31.807Z,2.78
2018-02-13T22:36:59.319Z,2.77
2018-02-13T22:39:26.809Z,2.76
2018-02-13T22:41:54.306Z,2.75
2018-02-13T22:44:21.784Z,2.72
2018-02-13T22:46:49.280Z,2.70
2018-02-13T22:49:16.763Z,2.69
2018-02-13T22:51:44.276Z,2.68
2018-02-13T22:54:11.779Z,2.67
2018-02-13T22:56:39.263Z,2.66
2018-02-13T22:59:06.753Z,2.65
2018-02-13T23:01:34.252Z,2.62
2018-02-13T23:04:01.735Z,2.62
2018-02-13T23:06:29.244Z,2.60
2018-02-13T23:08:56.734Z,2.59
2018-02-13T23:11:24.246Z,2.56
2018-02-13T23:13:51.734Z,2.55
2018-02-13T23:16:19.210Z,2.52
2018-02-13T23:18:46.695Z,2.50
2018-02-13T23:21:14.184Z,2.49
2018-02-13T23:23:41.679Z,2.48
2018-02-13T23:26:09.155Z,2.46
2018-02-13T23:28:36.648Z,2.46
2018-02-13T23:31:04.139Z,2.43
2018-02-13T23:33:31.631Z,2.40
2018-02-13T23:35:59.150Z,2.40
2018-02-13T23:38:26.632Z,2.39
2018-02-13T23:40:54.124Z,2.37
2018-02-13T23:43:21.620Z,2.35
2018-02-13T23:45:49.170Z,2.33
2018-02-13T23:48:16.654Z,2.31
2018-02-13T23:50:44.152Z,2.29
2018-02-13T23:53:11.626Z,2.29
2018-02-13T23:55:39.119Z,2.29
2018-02-13T23:58:06.607Z,2.28
